createdAt,value
2022-11-18T00:00:07.390Z,5.82
2022-11-18T00:02:39.699Z,6.65
2022-11-18T00:05:07.995Z,8.13
2022-11-18T00:07:36.077Z,6.72
2022-11-18T00:10:04.208Z,6.88
2022-11-18T00:12:49.685Z,7.72
2022-11-18T00:15:17.777Z,5.60
2022-11-18T00:17:50.106Z,6.18
2022-11-18T00:20:18.239Z,4.20
2022-11-18T00:22:47.475Z,9.07
2022-11-18T00:25:15.548Z,6.43
2022-11-18T00:27:43.499Z,3.88
2022-11-18T00:30:12.704Z,5.70
2022-11-18T00:32:40.776Z,4.18
2022-11-18T00:35:10.633Z,3.75
2022-11-18T00:37:38.787Z,6.90
2022-11-18T00:40:08.035Z,4.05
2022-11-18T00:42:53.690Z,9.15
2022-11-18T00:45:24.924Z,5.18
2022-11-18T00:47:52.942Z,7.03
2022-11-18T00:50:22.431Z,5.90
2022-11-18T00:52:50.435Z,6.75
2022-11-18T00:55:18.641Z,4.28
2022-11-18T00:57:56.726Z,5.35
2022-11-18T01:00:25.270Z,8.30
2022-11-18T01:02:53.576Z,7.47
2022-11-18T01:05:23.059Z,6.68
2022-11-18T01:07:58.357Z,4.68
2022-11-18T01:10:31.368Z,5.70
2022-11-18T01:13:16.984Z,6.03
2022-11-18T01:15:49.329Z,5.40
2022-11-18T01:18:22.103Z,5.03
2022-11-18T01:20:52.071Z,8.30
2022-11-18T01:23:21.193Z,7.38
2022-11-18T01:25:51.118Z,9.18
2022-11-18T01:28:23.544Z,8.35
2022-11-18T01:30:52.475Z,6.40
2022-11-18T01:33:20.558Z,8.82
2022-11-18T01:35:48.438Z,5.95
2022-11-18T01:38:19.129Z,7.30
2022-11-18T01:40:47.177Z,13.27
2022-11-18T01:43:20.963Z,8.38
2022-11-18T01:45:50.274Z,6.78
2022-11-18T01:48:21.566Z,6.78
2022-11-18T01:50:54.713Z,8.63
2022-11-18T01:53:28.403Z,6.80
2022-11-18T01:55:59.105Z,8.57
2022-11-18T01:58:31.345Z,8.73
2022-11-18T02:01:00.886Z,10.70
2022-11-18T02:03:29.641Z,11.00
2022-11-18T02:05:59.986Z,7.13
2022-11-18T02:08:30.443Z,11.38
2022-11-18T02:11:01.347Z,10.02
2022-11-18T02:13:29.749Z,8.57
2022-11-18T02:16:07.761Z,13.07
2022-11-18T02:18:47.734Z,12.05
2022-11-18T02:21:29.715Z,8.30
2022-11-18T02:24:27.505Z,9.23
2022-11-18T02:27:40.701Z,7.95
2022-11-18T02:30:12.148Z,16.15
2022-11-18T02:32:45.418Z,10.93
2022-11-18T02:35:21.127Z,7.88
2022-11-18T02:37:52.951Z,10.43
2022-11-18T02:40:24.479Z,8.07
2022-11-18T02:42:57.447Z,9.07
2022-11-18T02:45:29.334Z,7.85
2022-11-18T02:47:59.940Z,7.28
2022-11-18T02:50:31.314Z,9.82
2022-11-18T02:53:02.510Z,12.10
2022-11-18T02:55:34.194Z,8.23
2022-11-18T02:58:04.521Z,9.87
2022-11-18T03:00:34.518Z,10.35
2022-11-18T03:03:22.304Z,10.80
2022-11-18T03:05:58.167Z,14.63
2022-11-18T03:08:31.031Z,10.52
2022-11-18T03:11:05.560Z,10.20
2022-11-18T03:13:37.426Z,7.90
2022-11-18T03:16:13.143Z,10.48
2022-11-18T03:18:48.071Z,13.07
2022-11-18T03:21:20.379Z,12.10
2022-11-18T03:23:56.173Z,9.07
2022-11-18T03:26:30.794Z,8.73
2022-11-18T03:29:04.197Z,7.93
2022-11-18T03:31:39.119Z,10.85
2022-11-18T03:34:11.813Z,9.57
2022-11-18T03:36:46.052Z,7.35
2022-11-18T03:39:20.292Z,11.07
2022-11-18T03:41:56.478Z,18.02
2022-11-18T03:44:29.124Z,7.38
2022-11-18T03:47:02.244Z,9.75
2022-11-18T03:49:34.860Z,8.90
2022-11-18T03:52:08.947Z,13.43
2022-11-18T03:54:39.800Z,7.07
2022-11-18T03:57:13.281Z,14.07
2022-11-18T03:59:46.857Z,8.52
2022-11-18T04:02:18.321Z,12.00
2022-11-18T04:04:48.569Z,9.43
2022-11-18T04:07:23.427Z,12.00
2022-11-18T04:09:57.635Z,10.35
2022-11-18T04:12:28.534Z,7.50
2022-11-18T04:14:56.482Z,9.98
2022-11-18T04:17:29.444Z,9.70
2022-11-18T04:19:57.690Z,12.10
2022-11-18T04:22:25.879Z,9.50
2022-11-18T04:24:53.834Z,9.68
2022-11-18T04:27:21.984Z,9.88
2022-11-18T04:29:50.167Z,10.65
2022-11-18T04:32:18.369Z,10.63
2022-11-18T04:34:47.832Z,12.98
2022-11-18T04:37:15.835Z,10.85
2022-11-18T04:39:44.900Z,20.33
2022-11-18T04:42:16.407Z,11.32
2022-11-18T04:44:47.770Z,9.38
2022-11-18T04:47:16.207Z,11.70
2022-11-18T04:49:44.380Z,10.25
2022-11-18T04:52:14.044Z,9.93
2022-11-18T04:57:49.876Z,4.15
2022-11-18T05:00:24.597Z,4.10
2022-11-18T05:02:53.468Z,4.78
2022-11-18T05:05:39.088Z,3.08
2022-11-18T05:08:16.931Z,3.45
2022-11-18T05:11:34.998Z,4.25
2022-11-18T05:14:04.164Z,4.72
2022-11-18T05:17:18.148Z,3.13
2022-11-18T05:26:02.460Z,5.63
2022-11-18T05:28:43.652Z,2.53
2022-11-18T05:31:22.660Z,2.58
2022-11-18T05:33:57.257Z,1.60
2022-11-18T05:36:34.701Z,6.10
2022-11-18T05:39:08.254Z,2.33
2022-11-18T05:41:59.010Z,3.08
2022-11-18T05:44:27.347Z,3.90
2022-11-18T05:46:56.845Z,1.65
2022-11-18T05:49:25.789Z,5.00
2022-11-18T05:51:54.101Z,2.03
2022-11-18T05:54:24.474Z,1.38
2022-11-18T05:56:58.458Z,1.73
2022-11-18T05:59:26.943Z,2.60
2022-11-18T06:02:04.947Z,2.78
2022-11-18T06:04:38.721Z,1.55
2022-11-18T06:07:13.873Z,2.03
2022-11-18T06:09:46.176Z,1.48
2022-11-18T06:12:18.246Z,1.08
2022-11-18T06:14:51.734Z,1.38
2022-11-18T06:17:23.698Z,0.50
2022-11-18T06:19:52.726Z,0.75
2022-11-18T06:22:21.395Z,0.88
2022-11-18T06:24:49.523Z,0.75
2022-11-18T06:27:22.930Z,2.47
2022-11-18T06:29:50.953Z,0.73
2022-11-18T06:32:18.937Z,2.15
2022-11-18T06:34:47.124Z,1.05
2022-11-18T06:37:17.338Z,3.58
2022-11-18T06:39:45.906Z,1.17
2022-11-18T06:42:41.903Z,1.75
2022-11-18T06:45:11.079Z,1.13
2022-11-18T06:47:38.255Z,1.67
2022-11-18T06:50:10.413Z,2.08
2022-11-18T06:52:38.550Z,2.67
2022-11-18T06:55:08.406Z,1.08
2022-11-18T06:57:37.868Z,0.75
2022-11-18T07:00:07.498Z,0.28
2022-11-18T07:02:37.490Z,0.45
2022-11-18T07:05:06.281Z,0.40
2022-11-18T07:07:40.522Z,0.90
2022-11-18T07:10:10.678Z,0.82
2022-11-18T07:12:42.399Z,1.52
2022-11-18T07:15:11.132Z,2.58
2022-11-18T07:17:39.223Z,6.30
2022-11-18T07:20:08.336Z,12.38
2022-11-18T07:22:36.330Z,4.43
2022-11-18T07:25:06.613Z,0.75
2022-11-18T07:27:34.652Z,0.60
2022-11-18T07:30:04.521Z,1.42
2022-11-18T07:32:34.207Z,1.13
2022-11-18T07:35:02.195Z,0.93
2022-11-18T07:37:30.165Z,1.02
2022-11-18T07:39:59.781Z,5.85
2022-11-18T07:42:28.023Z,1.17
2022-11-18T07:44:56.091Z,1.90
2022-11-18T07:47:25.382Z,3.17
2022-11-18T07:49:53.338Z,2.70
2022-11-18T07:52:21.437Z,1.50
2022-11-18T07:54:49.439Z,0.82
2022-11-18T07:57:17.562Z,2.92
2022-11-18T07:59:45.570Z,3.10
2022-11-18T08:02:13.957Z,1.67
2022-11-18T08:04:43.475Z,2.28
2022-11-18T08:07:11.870Z,2.63
2022-11-18T08:09:40.011Z,1.67
2022-11-18T08:12:08.485Z,3.67
2022-11-18T08:14:39.115Z,3.97
2022-11-18T08:17:15.742Z,3.15
2022-11-18T08:19:45.063Z,10.10
2022-11-18T08:22:13.196Z,6.07
2022-11-18T08:24:41.222Z,3.70
2022-11-18T08:27:09.336Z,5.45
2022-11-18T08:29:37.485Z,2.10
2022-11-18T08:32:06.403Z,3.78
2022-11-18T08:34:34.819Z,8.88
2022-11-18T08:37:04.223Z,3.00
2022-11-18T08:39:32.337Z,5.03
2022-11-18T08:42:00.685Z,7.82
2022-11-18T08:44:29.003Z,2.42
2022-11-18T08:46:57.154Z,2.85
2022-11-18T08:49:31.137Z,3.45
2022-11-18T08:52:01.883Z,4.88
2022-11-18T08:54:31.993Z,2.60
2022-11-18T08:57:00.628Z,7.03
2022-11-18T09:05:15.981Z,5.30
2022-11-18T09:07:48.907Z,2.58
2022-11-18T09:11:09.394Z,2.83
2022-11-18T09:27:19.864Z,4.50
2022-11-18T09:29:49.891Z,3.47
2022-11-18T09:32:18.011Z,4.20
2022-11-18T09:34:46.083Z,4.22
2022-11-18T09:37:14.092Z,3.72
2022-11-18T09:39:45.088Z,6.43
2022-11-18T09:42:32.988Z,5.55
2022-11-18T09:45:15.296Z,6.32
2022-11-18T09:47:44.547Z,4.72
2022-11-18T09:50:47.205Z,6.30
2022-11-18T09:53:10.244Z,4.18
2022-11-18T09:55:41.055Z,5.47
2022-11-18T09:58:18.287Z,6.97
2022-11-18T10:00:46.765Z,5.72
2022-11-18T10:03:22.850Z,4.57
2022-11-18T10:05:56.590Z,3.17
2022-11-18T10:08:28.681Z,5.47
2022-11-18T10:11:04.763Z,2.20
2022-11-18T10:13:45.957Z,4.60
2022-11-18T10:16:32.128Z,5.03
2022-11-18T10:19:10.667Z,3.15
2022-11-18T10:21:47.459Z,4.78
2022-11-18T10:24:23.056Z,7.70
2022-11-18T10:26:57.166Z,3.03
2022-11-18T10:29:27.271Z,6.97
2022-11-18T10:32:04.140Z,4.15
2022-11-18T10:34:33.683Z,4.85
2022-11-18T10:37:03.413Z,4.63
2022-11-18T10:39:31.713Z,5.05
2022-11-18T10:42:03.580Z,3.70
2022-11-18T10:44:37.132Z,2.97
2022-11-18T10:47:34.465Z,3.35
2022-11-18T10:50:04.172Z,3.92
2022-11-18T10:52:32.273Z,2.65
2022-11-18T10:55:22.164Z,3.53
2022-11-18T10:57:55.262Z,4.28
2022-11-18T11:00:44.996Z,3.92
2022-11-18T11:03:38.823Z,2.03
2022-11-18T11:06:46.062Z,5.45
2022-11-18T11:09:28.849Z,5.47
2022-11-18T11:12:02.505Z,3.85
2022-11-18T11:14:36.237Z,3.53
2022-11-18T11:17:10.793Z,3.55
2022-11-18T11:19:45.693Z,5.03
2022-11-18T11:22:14.187Z,4.25
2022-11-18T11:24:42.793Z,3.05
2022-11-18T11:30:21.386Z,4.32
2022-11-18T11:33:22.565Z,3.70
2022-11-18T11:36:13.920Z,5.60
2022-11-18T11:39:05.073Z,2.38
2022-11-18T11:41:45.167Z,5.13
2022-11-18T11:44:27.884Z,7.07
2022-11-18T11:49:56.943Z,3.10
2022-11-18T11:52:37.402Z,4.13
2022-11-18T11:55:18.284Z,1.90
2022-11-18T11:58:06.370Z,1.80
2022-11-18T12:00:41.186Z,3.30
2022-11-18T12:03:26.531Z,2.40
2022-11-18T12:05:55.927Z,7.22
2022-11-18T12:08:25.810Z,5.80
2022-11-18T12:10:58.414Z,3.08
2022-11-18T12:16:19.518Z,4.22
2022-11-18T12:18:51.874Z,4.07
2022-11-18T12:22:08.800Z,3.22
2022-11-18T12:24:39.916Z,2.35
2022-11-18T12:27:14.354Z,2.35
2022-11-18T12:29:56.356Z,3.13
2022-11-18T12:32:32.433Z,3.60
2022-11-18T12:35:03.537Z,1.85
2022-11-18T12:38:08.007Z,2.15
2022-11-18T12:40:50.643Z,1.70
2022-11-18T12:44:05.400Z,3.03
2022-11-18T12:46:58.119Z,2.10
2022-11-18T12:50:02.751Z,4.05
2022-11-18T12:52:50.232Z,1.98
2022-11-18T12:55:26.340Z,2.08
2022-11-18T12:57:55.732Z,2.22
2022-11-18T13:00:33.117Z,2.08
2022-11-18T13:03:02.953Z,1.98
2022-11-18T13:05:33.601Z,2.67
2022-11-18T13:08:17.115Z,2.88
2022-11-18T13:10:55.843Z,1.77
2022-11-18T13:13:30.331Z,3.15
2022-11-18T13:16:22.933Z,3.03
2022-11-18T13:18:53.127Z,2.38
2022-11-18T13:21:43.475Z,3.28
2022-11-18T13:24:14.264Z,4.68
2022-11-18T13:26:44.149Z,1.85
2022-11-18T13:29:30.177Z,1.58
2022-11-18T13:32:18.641Z,2.42
2022-11-18T13:34:50.091Z,3.80
2022-11-18T13:37:20.978Z,2.10
2022-11-18T13:39:50.064Z,4.45
2022-11-18T13:42:21.263Z,1.98
2022-11-18T13:44:58.726Z,5.00
2022-11-18T13:47:31.768Z,1.85
2022-11-18T13:50:12.747Z,3.60
2022-11-18T13:52:44.228Z,4.13
2022-11-18T13:55:19.746Z,3.95
2022-11-18T13:57:51.225Z,4.13
2022-11-18T14:00:26.268Z,3.88
2022-11-18T14:02:58.782Z,2.97
2022-11-18T14:08:05.276Z,4.35
2022-11-18T14:10:43.048Z,2.25
2022-11-18T14:13:19.266Z,3.15
2022-11-18T14:15:48.775Z,4.25
2022-11-18T14:18:22.350Z,3.85
2022-11-18T14:20:54.954Z,3.40
2022-11-18T14:23:32.065Z,2.80
2022-11-18T14:26:02.266Z,1.48
2022-11-18T14:28:33.928Z,1.83
2022-11-18T14:31:20.962Z,4.70
2022-11-18T14:34:16.499Z,3.22
2022-11-18T14:36:44.665Z,3.83
2022-11-18T14:39:27.473Z,1.67
2022-11-18T14:41:58.811Z,3.20
2022-11-18T14:44:28.906Z,2.70
2022-11-18T14:47:00.182Z,4.20
2022-11-18T14:49:30.808Z,4.95
2022-11-18T14:52:02.408Z,4.38
2022-11-18T14:54:30.903Z,1.77
2022-11-18T14:57:02.297Z,3.72
2022-11-18T14:59:30.297Z,5.70
2022-11-18T15:01:59.951Z,3.42
2022-11-18T15:04:28.139Z,7.13
2022-11-18T15:06:56.419Z,5.30
2022-11-18T15:09:24.666Z,3.85
2022-11-18T15:11:52.697Z,2.97
2022-11-18T15:14:21.232Z,3.90
2022-11-18T15:16:49.484Z,2.22
2022-11-18T15:19:18.864Z,5.65
2022-11-18T15:21:46.829Z,6.38
2022-11-18T15:24:15.184Z,4.63
2022-11-18T15:26:46.410Z,4.97
2022-11-18T15:29:18.375Z,5.80
2022-11-18T15:31:46.498Z,5.57
2022-11-18T15:34:14.906Z,2.42
2022-11-18T15:36:44.389Z,4.97
2022-11-18T15:39:12.761Z,4.43
2022-11-18T15:41:42.837Z,3.30
2022-11-18T15:44:11.836Z,4.70
2022-11-18T15:46:40.244Z,6.18
2022-11-18T15:49:09.998Z,3.38
2022-11-18T15:51:38.349Z,7.97
2022-11-18T15:54:07.944Z,3.45
2022-11-18T15:56:38.850Z,5.03
2022-11-18T15:59:08.610Z,2.90
2022-11-18T16:01:40.055Z,6.43
2022-11-18T16:04:25.531Z,3.42
2022-11-18T16:06:53.651Z,5.72
2022-11-18T16:09:23.231Z,3.58
2022-11-18T16:12:08.808Z,3.38
2022-11-18T16:14:39.812Z,3.97
2022-11-18T16:17:07.849Z,6.97
2022-11-18T16:19:36.090Z,4.75
2022-11-18T16:22:04.143Z,8.13
2022-11-18T16:24:33.540Z,8.23
2022-11-18T16:27:04.656Z,3.88
2022-11-18T16:29:32.960Z,4.35
2022-11-18T16:32:00.080Z,3.80
2022-11-18T16:34:30.282Z,5.47
2022-11-18T16:37:01.470Z,4.75
2022-11-18T16:39:30.412Z,4.22
2022-11-18T16:42:07.783Z,7.30
2022-11-18T16:44:36.436Z,4.93
2022-11-18T16:47:12.419Z,3.35
2022-11-18T16:49:42.528Z,3.63
2022-11-18T16:52:10.770Z,3.38
2022-11-18T16:54:44.929Z,4.85
2022-11-18T16:57:15.575Z,3.00
2022-11-18T16:59:43.732Z,2.67
2022-11-18T17:02:13.997Z,3.63
2022-11-18T17:04:42.206Z,2.22
2022-11-18T17:07:10.314Z,2.70
2022-11-18T17:09:38.585Z,4.22
2022-11-18T17:12:08.789Z,3.80
2022-11-18T17:14:40.431Z,8.98
2022-11-18T17:17:08.952Z,3.40
2022-11-18T17:19:36.987Z,3.65
2022-11-18T17:22:05.243Z,9.07
2022-11-18T17:24:33.292Z,6.03
2022-11-18T17:27:01.226Z,1.95
2022-11-18T17:29:30.422Z,3.78
2022-11-18T17:31:59.843Z,4.05
2022-11-18T17:34:27.903Z,5.80
2022-11-18T17:37:04.921Z,4.97
2022-11-18T17:39:35.913Z,6.43
2022-11-18T17:42:16.691Z,5.22
2022-11-18T17:44:45.024Z,6.50
2022-11-18T17:47:14.434Z,4.07
2022-11-18T17:49:42.506Z,4.57
2022-11-18T17:52:10.747Z,3.83
2022-11-18T17:54:38.720Z,4.07
2022-11-18T17:57:06.672Z,5.93
2022-11-18T17:59:34.744Z,4.95
2022-11-18T18:02:02.829Z,5.95
2022-11-18T18:04:32.420Z,2.58
2022-11-18T18:07:00.445Z,3.90
2022-11-18T18:09:30.997Z,3.17
2022-11-18T18:12:26.383Z,3.15
2022-11-18T18:14:53.490Z,8.43
2022-11-18T18:17:21.487Z,3.63
2022-11-18T18:19:50.898Z,4.15
2022-11-18T18:22:18.980Z,5.15
2022-11-18T18:24:48.557Z,6.03
2022-11-18T18:27:16.617Z,5.25
2022-11-18T18:29:44.610Z,3.88
2022-11-18T18:32:12.825Z,8.88
2022-11-18T18:34:40.790Z,4.50
2022-11-18T18:37:10.134Z,5.28
2022-11-18T18:39:38.125Z,3.78
2022-11-18T18:42:06.344Z,5.65
2022-11-18T18:44:50.711Z,4.13
2022-11-18T18:47:18.886Z,6.15
2022-11-18T18:49:46.875Z,6.32
2022-11-18T18:52:16.320Z,5.38
2022-11-18T18:54:44.272Z,7.88
2022-11-18T18:57:12.437Z,5.88
2022-11-18T18:59:40.435Z,5.88
2022-11-18T19:02:08.511Z,7.72
2022-11-18T19:04:36.497Z,5.43
2022-11-18T19:07:04.665Z,5.65
2022-11-18T19:09:37.118Z,6.10
2022-11-18T19:12:25.634Z,7.20
2022-11-18T19:14:53.658Z,5.25
2022-11-18T19:17:22.000Z,4.13
2022-11-18T19:20:07.401Z,8.98
2022-11-18T19:22:35.433Z,4.80
2022-11-18T19:25:05.314Z,5.22
2022-11-18T19:27:33.963Z,7.53
2022-11-18T19:30:02.063Z,5.60
2022-11-18T19:32:32.874Z,8.25
2022-11-18T19:35:03.340Z,3.88
2022-11-18T19:37:32.020Z,7.97
2022-11-18T19:40:05.639Z,7.07
2022-11-18T19:42:39.542Z,4.90
2022-11-18T19:45:09.328Z,5.75
2022-11-18T19:47:37.608Z,7.07
2022-11-18T19:50:06.467Z,10.18
2022-11-18T19:52:37.421Z,7.97
2022-11-18T19:55:06.072Z,5.03
2022-11-18T19:57:34.076Z,4.00
2022-11-18T20:00:03.971Z,6.45
2022-11-18T20:02:32.021Z,6.93
2022-11-18T20:05:17.479Z,6.15
2022-11-18T20:07:46.940Z,6.80
2022-11-18T20:10:15.535Z,7.97
2022-11-18T20:12:43.595Z,8.98
2022-11-18T20:15:13.375Z,4.72
2022-11-18T20:17:41.472Z,6.50
2022-11-18T20:20:10.757Z,7.57
2022-11-18T20:22:38.828Z,6.55
2022-11-18T20:25:07.976Z,4.18
2022-11-18T20:27:36.063Z,6.15
2022-11-18T20:30:04.527Z,7.50
2022-11-18T20:32:38.561Z,7.57
2022-11-18T20:35:07.496Z,6.10
2022-11-18T20:37:35.636Z,9.18
2022-11-18T20:40:03.611Z,6.25
2022-11-18T20:42:52.636Z,9.15
2022-11-18T20:45:24.003Z,8.23
2022-11-18T20:47:53.351Z,7.10
2022-11-18T20:50:24.144Z,8.52
2022-11-18T20:52:54.114Z,6.65
2022-11-18T20:55:22.306Z,4.20
2022-11-18T20:57:53.275Z,7.07
2022-11-18T21:00:21.619Z,8.80
2022-11-18T21:02:49.728Z,9.10
2022-11-18T21:05:19.088Z,9.57
2022-11-18T21:07:49.065Z,9.63
2022-11-18T21:10:17.695Z,13.15
2022-11-18T21:13:05.873Z,7.78
2022-11-18T21:15:34.293Z,6.45
2022-11-18T21:18:02.449Z,9.30
2022-11-18T21:20:55.124Z,10.57
2022-11-18T21:23:26.112Z,6.65
2022-11-18T21:25:55.882Z,9.70
2022-11-18T21:28:27.533Z,11.05
2022-11-18T21:30:55.604Z,9.47
2022-11-18T21:33:23.631Z,13.90
2022-11-18T21:35:53.027Z,9.60
2022-11-18T21:38:20.980Z,13.77
2022-11-18T21:40:48.925Z,13.07
2022-11-18T21:43:16.920Z,11.00
2022-11-18T21:45:45.055Z,9.43
2022-11-18T21:48:13.112Z,9.95
2022-11-18T21:50:41.092Z,7.93
2022-11-18T21:53:10.525Z,11.02
2022-11-18T21:55:38.521Z,11.27
2022-11-18T21:58:06.496Z,9.70
2022-11-18T22:00:34.457Z,7.85
2022-11-18T22:03:02.500Z,10.18
2022-11-18T22:05:30.477Z,12.48
2022-11-18T22:07:58.468Z,8.90
2022-11-18T22:10:27.813Z,10.48
2022-11-18T22:12:55.860Z,10.68
2022-11-18T22:15:24.690Z,12.50
2022-11-18T22:17:52.695Z,8.23
2022-11-18T22:20:20.746Z,9.48
2022-11-18T22:22:48.713Z,7.65
2022-11-18T22:25:16.820Z,9.43
2022-11-18T22:27:46.200Z,12.50
2022-11-18T22:30:14.508Z,11.45
2022-11-18T22:32:43.530Z,14.35
2022-11-18T22:35:11.545Z,12.98
2022-11-18T22:37:39.537Z,12.57
2022-11-18T22:40:08.950Z,9.77
2022-11-18T22:42:47.875Z,8.23
2022-11-18T22:45:17.679Z,12.32
2022-11-18T22:47:45.613Z,10.25
2022-11-18T22:50:13.653Z,9.82
2022-11-18T22:52:42.211Z,8.20
2022-11-18T22:55:10.947Z,6.53
2022-11-18T22:57:39.178Z,8.65
2022-11-18T23:00:08.727Z,11.50
2022-11-18T23:02:38.180Z,10.70
2022-11-18T23:05:07.413Z,13.02
2022-11-18T23:07:36.782Z,12.75
2022-11-18T23:10:05.533Z,14.70
2022-11-18T23:12:50.784Z,9.05
2022-11-18T23:15:20.965Z,9.35
2022-11-18T23:17:50.352Z,13.98
2022-11-18T23:20:18.486Z,9.75
2022-11-18T23:22:46.479Z,10.70
2022-11-18T23:25:14.664Z,8.68
2022-11-18T23:27:42.746Z,9.27
2022-11-18T23:30:11.758Z,8.20
2022-11-18T23:32:39.782Z,11.40
2022-11-18T23:35:10.069Z,12.85
2022-11-18T23:37:38.100Z,9.45
2022-11-18T23:40:08.871Z,8.57
2022-11-18T23:42:36.914Z,8.15
2022-11-18T23:45:05.659Z,9.20
2022-11-18T23:47:33.859Z,11.15
2022-11-18T23:50:01.960Z,14.95
2022-11-18T23:52:31.385Z,10.00
2022-11-18T23:55:01.367Z,17.13
2022-11-18T23:57:30.531Z,8.15
2022-11-18T23:59:58.483Z,10.95
